createdAt,value
2023-02-13T00:01:04.465Z,-4.09
2023-02-13T00:03:30.972Z,-4.11
2023-02-13T00:05:57.485Z,-4.12
2023-02-13T00:08:23.892Z,-4.12
2023-02-13T00:10:50.362Z,-4.10
2023-02-13T00:13:16.812Z,-4.11
2023-02-13T00:15:43.395Z,-4.14
2023-02-13T00:18:09.911Z,-4.14
2023-02-13T00:20:36.369Z,-4.12
2023-02-13T00:23:02.820Z,-4.12
2023-02-13T00:25:29.349Z,-4.09
2023-02-13T00:27:55.816Z,-4.07
2023-02-13T00:30:22.801Z,-4.04
2023-02-13T00:32:49.237Z,-4.05
2023-02-13T00:35:15.668Z,-4.06
2023-02-13T00:37:42.127Z,-4.04
2023-02-13T00:40:09.073Z,-4.03
2023-02-13T00:42:35.531Z,-3.99
2023-02-13T00:45:01.955Z,-4.01
2023-02-13T00:47:28.576Z,-4.03
2023-02-13T00:49:55.012Z,-4.00
2023-02-13T00:52:21.427Z,-4.06
2023-02-13T00:54:48.365Z,-4.05
2023-02-13T00:57:14.835Z,-4.01
2023-02-13T00:59:41.271Z,-3.99
2023-02-13T01:02:07.773Z,-3.95
2023-02-13T01:04:34.341Z,-3.93
2023-02-13T01:07:00.865Z,-3.91
2023-02-13T01:09:27.398Z,-3.87
2023-02-13T01:11:53.846Z,-3.86
2023-02-13T01:14:20.308Z,-3.86
2023-02-13T01:16:46.772Z,-3.85
2023-02-13T01:19:13.204Z,-3.80
2023-02-13T01:21:39.800Z,-3.79
2023-02-13T01:24:06.459Z,-3.80
2023-02-13T01:26:33.137Z,-3.79
2023-02-13T01:28:59.763Z,-3.91
2023-02-13T01:31:26.683Z,-3.92
2023-02-13T01:33:55.915Z,-3.85
2023-02-13T01:36:22.407Z,-3.82
2023-02-13T01:38:48.936Z,-3.80
2023-02-13T01:41:15.692Z,-3.77
2023-02-13T01:43:45.040Z,-3.73
2023-02-13T01:46:12.565Z,-3.77
2023-02-13T01:48:39.037Z,-3.74
2023-02-13T01:51:08.718Z,-3.78
2023-02-13T01:53:46.815Z,-3.85
2023-02-13T01:56:25.730Z,-3.79
2023-02-13T01:58:54.392Z,-3.73
2023-02-13T02:01:22.171Z,-3.69
2023-02-13T02:04:05.938Z,-3.67
2023-02-13T02:06:34.609Z,-3.69
2023-02-13T02:09:08.048Z,-3.67
2023-02-13T02:11:53.110Z,-3.63
2023-02-13T02:14:19.881Z,-3.62
2023-02-13T02:16:46.473Z,-3.58
2023-02-13T02:19:41.977Z,-3.53
2023-02-13T02:22:27.020Z,-3.51
2023-02-13T02:25:02.521Z,-3.48
2023-02-13T02:27:54.407Z,-3.48
2023-02-13T02:30:23.874Z,-3.48
2023-02-13T02:33:10.671Z,-3.49
2023-02-13T02:35:43.664Z,-3.47
2023-02-13T02:38:18.329Z,-3.44
2023-02-13T02:41:02.000Z,-3.41
2023-02-13T02:43:28.414Z,-3.43
2023-02-13T02:46:02.077Z,-3.42
2023-02-13T02:48:46.979Z,-3.39
2023-02-13T02:51:45.551Z,-3.40
2023-02-13T02:54:39.562Z,-3.39
2023-02-13T02:57:17.416Z,-3.50
2023-02-13T03:00:02.683Z,-3.51
2023-02-13T03:02:49.534Z,-3.47
2023-02-13T03:05:38.608Z,-3.45
2023-02-13T03:08:05.827Z,-3.63
2023-02-13T03:10:52.474Z,-3.65
2023-02-13T03:13:31.131Z,-3.67
2023-02-13T03:16:17.920Z,-3.68
2023-02-13T03:19:05.946Z,-3.65
2023-02-13T03:22:00.235Z,-3.62
2023-02-13T03:24:26.625Z,-3.59
2023-02-13T03:27:01.408Z,-3.56
2023-02-13T03:29:55.655Z,-3.62
2023-02-13T03:32:24.849Z,-3.64
2023-02-13T03:35:43.429Z,-3.65
2023-02-13T03:38:17.517Z,-3.65
2023-02-13T03:41:10.266Z,-3.68
2023-02-13T03:43:43.916Z,-3.74
2023-02-13T03:46:10.906Z,-3.73
2023-02-13T03:48:58.138Z,-3.75
2023-02-13T03:51:31.084Z,-3.80
2023-02-13T03:54:00.307Z,-3.79
2023-02-13T03:56:46.237Z,-3.78
2023-02-13T03:59:32.888Z,-3.77
2023-02-13T04:02:02.503Z,-3.80
2023-02-13T04:04:33.693Z,-3.81
2023-02-13T04:07:02.555Z,-3.84
2023-02-13T04:09:30.059Z,-3.86
2023-02-13T04:12:03.044Z,-3.81
2023-02-13T04:14:52.776Z,-3.75
2023-02-13T04:17:25.304Z,-3.73
2023-02-13T04:19:51.806Z,-3.69
2023-02-13T04:22:18.347Z,-3.70
2023-02-13T04:24:45.615Z,-3.72
2023-02-13T04:27:14.302Z,-3.73
2023-02-13T04:29:40.850Z,-3.73
2023-02-13T04:32:07.456Z,-3.69
2023-02-13T04:34:33.957Z,-3.70
2023-02-13T04:37:00.381Z,-3.70
2023-02-13T04:39:26.831Z,-3.68
2023-02-13T04:41:53.249Z,-3.66
2023-02-13T04:44:19.675Z,-3.67
2023-02-13T04:46:46.153Z,-3.69
2023-02-13T04:49:12.672Z,-3.78
2023-02-13T04:51:39.268Z,-3.76
2023-02-13T04:54:05.718Z,-3.74
2023-02-13T04:56:32.160Z,-3.76
2023-02-13T04:58:58.590Z,-3.79
2023-02-13T05:01:25.095Z,-3.76
2023-02-13T05:03:51.682Z,-3.82
2023-02-13T05:06:18.163Z,-3.77
2023-02-13T05:08:44.573Z,-3.74
2023-02-13T05:11:11.029Z,-3.73
2023-02-13T05:13:37.438Z,-3.72
2023-02-13T05:16:03.944Z,-3.67
2023-02-13T05:18:30.400Z,-3.62
2023-02-13T05:21:22.820Z,-3.57
2023-02-13T05:23:49.232Z,-3.55
2023-02-13T05:26:15.641Z,-3.55
2023-02-13T05:29:00.627Z,-3.53
2023-02-13T05:31:27.125Z,-3.52
2023-02-13T05:33:53.604Z,-3.47
2023-02-13T05:36:20.186Z,-3.43
2023-02-13T05:38:46.606Z,-3.41
2023-02-13T05:41:13.653Z,-3.42
2023-02-13T05:43:40.145Z,-3.37
2023-02-13T05:46:07.384Z,-3.36
2023-02-13T05:48:33.939Z,-3.29
2023-02-13T05:51:00.976Z,-3.26
2023-02-13T05:53:27.824Z,-3.29
2023-02-13T05:55:54.308Z,-3.29
2023-02-13T05:58:21.100Z,-3.31
2023-02-13T06:00:47.566Z,-3.31
2023-02-13T06:03:14.737Z,-3.24
2023-02-13T06:05:41.245Z,-3.17
2023-02-13T06:08:07.708Z,-3.12
2023-02-13T06:10:34.245Z,-3.07
2023-02-13T06:13:00.739Z,-3.05
2023-02-13T06:15:27.355Z,-2.99
2023-02-13T06:17:53.838Z,-2.93
2023-02-13T06:20:20.349Z,-2.89
2023-02-13T06:22:50.695Z,-2.84
2023-02-13T06:25:17.383Z,-2.80
2023-02-13T06:27:43.899Z,-2.78
2023-02-13T06:30:10.629Z,-2.73
2023-02-13T06:32:37.073Z,-2.69
2023-02-13T06:35:05.557Z,-2.65
2023-02-13T06:37:32.475Z,-2.60
2023-02-13T06:39:58.979Z,-2.54
2023-02-13T06:42:25.642Z,-2.54
2023-02-13T06:44:52.226Z,-2.59
2023-02-13T06:47:18.644Z,-2.59
2023-02-13T06:49:45.118Z,-2.61
2023-02-13T06:52:11.631Z,-2.55
2023-02-13T06:54:47.178Z,-2.51
2023-02-13T06:57:15.027Z,-2.44
2023-02-13T06:59:41.501Z,-2.39
2023-02-13T07:02:09.779Z,-2.37
2023-02-13T07:04:36.202Z,-2.33
2023-02-13T07:07:02.789Z,-2.29
2023-02-13T07:09:29.252Z,-2.26
2023-02-13T07:11:55.676Z,-2.19
2023-02-13T07:14:22.176Z,-2.12
2023-02-13T07:16:48.630Z,-2.06
2023-02-13T07:19:15.085Z,-2.03
2023-02-13T07:21:41.562Z,-1.98
2023-02-13T07:24:08.342Z,-1.93
2023-02-13T07:26:34.783Z,-1.89
2023-02-13T07:29:11.527Z,-1.85
2023-02-13T07:31:39.347Z,-1.87
2023-02-13T07:34:05.963Z,-1.81
2023-02-13T07:36:32.464Z,-1.76
2023-02-13T07:38:59.135Z,-1.70
2023-02-13T07:41:26.936Z,-1.67
2023-02-13T07:43:53.893Z,-1.66
2023-02-13T07:46:20.798Z,-1.64
2023-02-13T07:48:47.267Z,-1.62
2023-02-13T07:51:13.915Z,-1.57
2023-02-13T07:53:40.347Z,-1.54
2023-02-13T07:56:07.442Z,-1.48
2023-02-13T07:58:33.937Z,-1.45
2023-02-13T08:01:05.458Z,-1.39
2023-02-13T08:03:31.960Z,-1.34
2023-02-13T08:05:58.692Z,-1.31
2023-02-13T08:08:25.343Z,-1.26
2023-02-13T08:11:10.389Z,-1.23
2023-02-13T08:13:37.440Z,-1.17
2023-02-13T08:16:04.018Z,-1.12
2023-02-13T08:18:30.444Z,-1.06
2023-02-13T08:20:56.923Z,-1.00
2023-02-13T08:23:23.575Z,-0.96
2023-02-13T08:25:50.052Z,-0.90
2023-02-13T08:28:16.960Z,-0.83
2023-02-13T08:30:43.481Z,-0.77
2023-02-13T08:33:09.946Z,-0.72
2023-02-13T08:35:36.440Z,-0.64
2023-02-13T08:38:03.498Z,-0.59
2023-02-13T08:40:29.946Z,-0.53
2023-02-13T08:43:00.399Z,-0.46
2023-02-13T08:45:27.124Z,-0.41
2023-02-13T08:47:55.936Z,-0.34
2023-02-13T08:50:22.390Z,-0.27
2023-02-13T08:52:48.875Z,-0.20
2023-02-13T08:55:15.448Z,-0.15
2023-02-13T08:57:41.891Z,-0.10
2023-02-13T09:00:09.043Z,-0.03
2023-02-13T09:02:35.519Z,0.07
2023-02-13T09:05:02.063Z,0.13
2023-02-13T09:07:28.521Z,0.21
2023-02-13T09:09:55.116Z,0.31
2023-02-13T09:12:21.580Z,0.41
2023-02-13T09:14:48.012Z,0.47
2023-02-13T09:17:18.381Z,0.54
2023-02-13T09:19:46.684Z,0.61
2023-02-13T09:22:13.175Z,0.66
2023-02-13T09:24:39.583Z,0.74
2023-02-13T09:27:06.167Z,0.82
2023-02-13T09:29:33.882Z,0.88
2023-02-13T09:32:00.624Z,0.95
2023-02-13T09:34:27.086Z,1.02
2023-02-13T09:36:54.327Z,1.08
2023-02-13T09:39:20.792Z,1.13
2023-02-13T09:41:48.780Z,1.21
2023-02-13T09:44:35.120Z,1.32
2023-02-13T09:47:10.467Z,1.39
2023-02-13T09:49:38.768Z,1.47
2023-02-13T09:52:05.252Z,1.53
2023-02-13T09:54:32.510Z,1.58
2023-02-13T09:57:01.102Z,1.61
2023-02-13T09:59:40.752Z,1.67
2023-02-13T10:02:25.841Z,1.73
2023-02-13T10:05:21.941Z,1.79
2023-02-13T10:07:48.476Z,1.87
2023-02-13T10:10:33.773Z,1.94
2023-02-13T10:13:12.611Z,2.03
2023-02-13T10:15:48.102Z,2.11
2023-02-13T10:18:19.199Z,2.20
2023-02-13T10:20:48.992Z,2.30
2023-02-13T10:23:19.723Z,2.39
2023-02-13T10:26:04.271Z,2.44
2023-02-13T10:29:14.517Z,2.56
2023-02-13T10:31:43.272Z,2.63
2023-02-13T10:34:15.578Z,2.70
2023-02-13T10:36:44.615Z,2.80
2023-02-13T10:39:23.542Z,2.87
2023-02-13T10:41:50.076Z,2.88
2023-02-13T10:44:25.597Z,2.88
2023-02-13T10:46:52.124Z,2.90
2023-02-13T10:49:37.203Z,2.90
2023-02-13T10:52:22.708Z,2.92
2023-02-13T10:55:06.363Z,2.94
2023-02-13T10:57:41.952Z,2.95
2023-02-13T11:00:18.459Z,2.97
2023-02-13T11:02:45.012Z,3.01
2023-02-13T11:05:14.578Z,3.03
2023-02-13T11:07:42.430Z,3.08
2023-02-13T11:10:19.734Z,3.14
2023-02-13T11:12:46.486Z,3.22
2023-02-13T11:15:22.042Z,3.26
2023-02-13T11:17:49.804Z,3.31
2023-02-13T11:20:37.013Z,3.37
2023-02-13T11:23:22.054Z,3.42
2023-02-13T11:26:03.014Z,3.45
2023-02-13T11:28:31.489Z,3.48
2023-02-13T11:31:09.936Z,3.52
2023-02-13T11:33:36.454Z,3.57
2023-02-13T11:36:07.279Z,3.58
2023-02-13T11:38:33.797Z,3.60
2023-02-13T11:41:13.896Z,3.65
2023-02-13T11:43:48.624Z,3.69
2023-02-13T11:46:20.350Z,3.74
2023-02-13T11:49:04.077Z,3.78
2023-02-13T11:51:38.837Z,3.83
2023-02-13T11:54:05.937Z,3.89
2023-02-13T11:57:03.343Z,3.90
2023-02-13T11:59:32.391Z,3.94
2023-02-13T12:02:22.150Z,3.98
2023-02-13T12:04:49.994Z,3.99
2023-02-13T12:07:22.528Z,4.02
2023-02-13T12:09:50.939Z,4.04
2023-02-13T12:12:22.897Z,4.07
2023-02-13T12:14:49.820Z,4.12
2023-02-13T12:17:30.820Z,4.14
2023-02-13T12:19:58.230Z,4.19
2023-02-13T12:22:42.453Z,4.22
2023-02-13T12:25:27.596Z,4.23
2023-02-13T12:28:14.329Z,4.24
2023-02-13T12:30:43.845Z,4.28
2023-02-13T12:33:16.561Z,4.31
2023-02-13T12:35:51.993Z,4.30
2023-02-13T12:38:37.351Z,4.34
2023-02-13T12:41:13.842Z,4.36
2023-02-13T12:43:46.328Z,4.43
2023-02-13T12:46:15.972Z,4.44
2023-02-13T12:48:45.324Z,4.43
2023-02-13T12:51:21.136Z,4.47
2023-02-13T12:53:53.954Z,4.51
2023-02-13T12:56:26.450Z,4.52
2023-02-13T12:58:53.046Z,4.54
2023-02-13T13:01:22.457Z,4.54
2023-02-13T13:03:51.792Z,4.54
2023-02-13T13:06:27.703Z,4.58
2023-02-13T13:08:57.107Z,4.60
2023-02-13T13:11:42.475Z,4.60
2023-02-13T13:14:27.125Z,4.61
2023-02-13T13:16:59.711Z,4.64
2023-02-13T13:19:33.073Z,4.65
2023-02-13T13:22:00.232Z,4.66
2023-02-13T13:24:35.876Z,4.69
2023-02-13T13:27:03.358Z,4.68
2023-02-13T13:29:36.590Z,4.66
2023-02-13T13:32:07.529Z,4.66
2023-02-13T13:34:35.397Z,4.68
2023-02-13T13:37:20.002Z,4.68
2023-02-13T13:40:05.205Z,4.69
2023-02-13T13:42:52.247Z,4.65
2023-02-13T13:45:18.651Z,4.64
2023-02-13T13:47:48.389Z,4.67
2023-02-13T13:50:19.517Z,4.65
2023-02-13T13:53:04.848Z,4.63
2023-02-13T13:55:46.482Z,4.55
2023-02-13T13:58:22.126Z,4.53
2023-02-13T14:01:08.505Z,4.54
2023-02-13T14:03:36.571Z,4.55
2023-02-13T14:06:13.770Z,4.52
2023-02-13T14:08:40.181Z,4.52
2023-02-13T14:11:24.601Z,4.50
2023-02-13T14:13:51.314Z,4.47
2023-02-13T14:16:36.394Z,4.35
2023-02-13T14:19:02.890Z,4.25
2023-02-13T14:21:29.352Z,4.21
2023-02-13T14:24:00.699Z,4.17
2023-02-13T14:26:29.880Z,4.13
2023-02-13T14:28:58.522Z,4.13
2023-02-13T14:31:32.295Z,4.16
2023-02-13T14:34:04.778Z,4.15
2023-02-13T14:36:33.741Z,4.16
2023-02-13T14:39:07.574Z,4.15
2023-02-13T14:41:55.381Z,4.19
2023-02-13T14:44:33.993Z,4.21
2023-02-13T14:47:02.932Z,4.23
2023-02-13T14:49:31.885Z,4.22
2023-02-13T14:52:08.451Z,4.16
2023-02-13T14:54:38.541Z,4.07
2023-02-13T14:57:07.484Z,4.04
2023-02-13T14:59:38.985Z,3.97
2023-02-13T15:02:08.300Z,4.01
2023-02-13T15:04:43.485Z,4.08
2023-02-13T15:07:22.117Z,4.12
2023-02-13T15:10:10.037Z,4.15
2023-02-13T15:12:37.487Z,4.14
2023-02-13T15:15:22.521Z,4.14
2023-02-13T15:17:48.963Z,4.13
2023-02-13T15:20:26.514Z,4.04
2023-02-13T15:22:53.081Z,3.92
2023-02-13T15:25:31.706Z,3.89
2023-02-13T15:27:59.799Z,3.90
2023-02-13T15:30:27.867Z,3.85
2023-02-13T15:32:55.531Z,3.83
2023-02-13T15:35:22.252Z,3.77
2023-02-13T15:37:48.689Z,3.69
2023-02-13T15:40:28.746Z,3.65
2023-02-13T15:42:56.348Z,3.53
2023-02-13T15:45:24.517Z,3.50
2023-02-13T15:47:51.796Z,3.49
2023-02-13T15:50:21.248Z,3.47
2023-02-13T15:52:48.297Z,3.47
2023-02-13T15:55:22.163Z,3.51
2023-02-13T15:57:49.910Z,3.50
2023-02-13T16:00:23.252Z,3.48
2023-02-13T16:02:51.312Z,3.44
2023-02-13T16:05:26.545Z,3.45
2023-02-13T16:08:01.325Z,3.36
2023-02-13T16:10:29.289Z,3.38
2023-02-13T16:12:56.993Z,3.33
2023-02-13T16:15:25.579Z,3.31
2023-02-13T16:17:54.265Z,3.33
2023-02-13T16:20:25.844Z,3.34
2023-02-13T16:23:02.709Z,3.32
2023-02-13T16:25:31.406Z,3.26
2023-02-13T16:27:59.712Z,3.26
2023-02-13T16:30:33.792Z,3.29
2023-02-13T16:33:12.693Z,3.29
2023-02-13T16:35:40.988Z,3.26
2023-02-13T16:38:25.822Z,3.14
2023-02-13T16:40:52.303Z,3.08
2023-02-13T16:43:33.926Z,3.07
2023-02-13T16:46:29.885Z,3.12
2023-02-13T16:48:56.315Z,3.13
2023-02-13T16:51:32.160Z,3.05
2023-02-13T16:53:58.681Z,3.05
2023-02-13T16:56:25.145Z,3.01
2023-02-13T16:59:02.290Z,2.98
2023-02-13T17:01:28.759Z,3.02
2023-02-13T17:03:55.710Z,3.05
2023-02-13T17:06:24.303Z,3.09
2023-02-13T17:08:52.693Z,3.07
2023-02-13T17:11:19.640Z,3.03
2023-02-13T17:13:46.047Z,2.95
2023-02-13T17:16:13.144Z,2.95
2023-02-13T17:18:39.608Z,2.98
2023-02-13T17:21:06.242Z,2.92
2023-02-13T17:23:32.701Z,2.76
2023-02-13T17:25:59.198Z,2.78
2023-02-13T17:28:27.810Z,2.79
2023-02-13T17:30:56.768Z,2.85
2023-02-13T17:33:27.619Z,2.88
2023-02-13T17:35:54.404Z,2.88
2023-02-13T17:38:21.198Z,2.86
2023-02-13T17:40:47.858Z,2.86
2023-02-13T17:43:15.767Z,2.83
2023-02-13T17:45:42.842Z,2.78
2023-02-13T17:48:09.341Z,2.80
2023-02-13T17:50:36.590Z,2.79
2023-02-13T17:53:08.514Z,2.81
2023-02-13T17:55:35.377Z,2.81
2023-02-13T17:58:02.222Z,2.75
2023-02-13T18:00:30.643Z,2.75
2023-02-13T18:02:59.226Z,2.78
2023-02-13T18:05:26.012Z,2.81
2023-02-13T18:07:52.436Z,2.85
2023-02-13T18:10:20.452Z,2.85
2023-02-13T18:12:47.424Z,2.78
2023-02-13T18:15:14.082Z,2.72
2023-02-13T18:17:40.565Z,2.76
2023-02-13T18:20:07.799Z,2.72
2023-02-13T18:22:34.244Z,2.70
2023-02-13T18:25:00.926Z,2.74
2023-02-13T18:27:28.313Z,2.80
2023-02-13T18:29:55.483Z,2.84
2023-02-13T18:32:22.146Z,2.81
2023-02-13T18:34:50.128Z,2.86
2023-02-13T18:37:16.995Z,2.89
2023-02-13T18:39:43.866Z,2.92
2023-02-13T18:42:11.698Z,2.88
2023-02-13T18:44:38.140Z,2.77
2023-02-13T18:47:04.750Z,2.77
2023-02-13T18:49:31.388Z,2.83
2023-02-13T18:51:57.966Z,2.89
2023-02-13T18:54:24.463Z,2.93
2023-02-13T18:56:51.044Z,2.95
2023-02-13T18:59:18.741Z,2.85
2023-02-13T19:01:45.494Z,2.85
2023-02-13T19:04:12.080Z,2.88
2023-02-13T19:06:41.633Z,2.92
2023-02-13T19:09:08.588Z,2.93
2023-02-13T19:11:35.710Z,2.93
2023-02-13T19:14:02.614Z,2.95
2023-02-13T19:16:30.223Z,2.98
2023-02-13T19:18:57.699Z,2.97
2023-02-13T19:21:25.559Z,2.96
2023-02-13T19:23:52.297Z,2.99
2023-02-13T19:26:20.159Z,3.02
2023-02-13T19:28:46.986Z,3.08
2023-02-13T19:31:15.536Z,3.10
2023-02-13T19:33:42.476Z,3.15
2023-02-13T19:36:11.850Z,3.18
2023-02-13T19:38:43.298Z,3.21
2023-02-13T19:41:11.238Z,3.25
2023-02-13T19:43:37.927Z,3.28
2023-02-13T19:46:05.191Z,3.24
2023-02-13T19:48:32.411Z,3.26
2023-02-13T19:50:59.201Z,3.31
2023-02-13T19:53:25.961Z,3.27
2023-02-13T19:55:58.282Z,3.29
2023-02-13T19:58:24.727Z,3.27
2023-02-13T20:00:51.214Z,3.23
2023-02-13T20:03:17.791Z,3.22
2023-02-13T20:05:44.515Z,3.22
2023-02-13T20:08:11.136Z,3.26
2023-02-13T20:10:37.918Z,3.26
2023-02-13T20:13:04.851Z,3.21
2023-02-13T20:15:32.405Z,3.13
2023-02-13T20:17:59.058Z,3.03
2023-02-13T20:20:28.029Z,2.99
2023-02-13T20:22:54.874Z,2.95
2023-02-13T20:25:23.298Z,2.98
2023-02-13T20:27:50.344Z,2.99
2023-02-13T20:30:17.832Z,2.91
2023-02-13T20:32:45.171Z,2.95
2023-02-13T20:35:12.428Z,2.95
2023-02-13T20:37:39.203Z,2.93
2023-02-13T20:40:06.006Z,2.94
2023-02-13T20:42:33.535Z,2.96
2023-02-13T20:45:00.703Z,2.91
2023-02-13T20:47:27.328Z,2.91
2023-02-13T20:49:54.056Z,2.89
2023-02-13T20:52:20.763Z,2.94
2023-02-13T20:54:47.834Z,2.94
2023-02-13T20:57:15.632Z,2.96
2023-02-13T20:59:43.176Z,2.92
2023-02-13T21:02:09.717Z,2.87
2023-02-13T21:04:36.200Z,2.86
2023-02-13T21:07:03.622Z,2.82
2023-02-13T21:09:30.154Z,2.81
2023-02-13T21:11:56.584Z,2.77
2023-02-13T21:14:23.034Z,2.84
2023-02-13T21:16:49.518Z,2.89
2023-02-13T21:19:17.393Z,2.89
2023-02-13T21:21:45.671Z,2.89
2023-02-13T21:24:16.303Z,2.83
2023-02-13T21:26:42.912Z,2.85
2023-02-13T21:29:09.922Z,2.86
2023-02-13T21:31:44.377Z,2.83
2023-02-13T21:34:11.799Z,2.86
2023-02-13T21:36:39.048Z,2.85
2023-02-13T21:39:06.684Z,2.86
2023-02-13T21:41:33.480Z,2.91
2023-02-13T21:44:00.101Z,2.94
2023-02-13T21:46:30.104Z,2.94
2023-02-13T21:49:03.914Z,2.93
2023-02-13T21:51:31.300Z,2.91
2023-02-13T21:53:57.821Z,2.91
2023-02-13T21:56:26.211Z,2.92
2023-02-13T21:58:52.966Z,2.96
2023-02-13T22:01:26.466Z,2.94
2023-02-13T22:04:00.209Z,2.96
2023-02-13T22:06:27.685Z,2.99
2023-02-13T22:08:58.362Z,3.00
2023-02-13T22:11:25.208Z,2.98
2023-02-13T22:13:54.146Z,2.98
2023-02-13T22:16:20.599Z,2.97
2023-02-13T22:18:49.240Z,2.94
2023-02-13T22:21:16.892Z,2.87
2023-02-13T22:23:44.054Z,2.86
2023-02-13T22:26:17.824Z,2.84
2023-02-13T22:28:44.867Z,2.86
2023-02-13T22:31:12.423Z,2.88
2023-02-13T22:33:38.956Z,2.90
2023-02-13T22:36:05.645Z,2.93
2023-02-13T22:38:33.300Z,2.91
2023-02-13T22:41:06.680Z,2.92
2023-02-13T22:43:33.449Z,2.89
2023-02-13T22:46:19.440Z,2.86
2023-02-13T22:48:49.012Z,2.86
2023-02-13T22:51:16.826Z,2.81
2023-02-13T22:53:43.706Z,2.72
2023-02-13T22:56:10.651Z,2.75
2023-02-13T22:58:37.621Z,2.72
2023-02-13T23:01:11.745Z,2.75
2023-02-13T23:03:38.215Z,2.69
2023-02-13T23:06:05.219Z,2.66
2023-02-13T23:08:32.084Z,2.71
2023-02-13T23:11:16.926Z,2.75
2023-02-13T23:13:48.324Z,2.75
2023-02-13T23:16:15.065Z,2.66
2023-02-13T23:18:41.546Z,2.76
2023-02-13T23:21:08.317Z,2.92
2023-02-13T23:23:35.552Z,3.00
2023-02-13T23:26:08.387Z,3.01
2023-02-13T23:28:35.377Z,3.04
2023-02-13T23:31:02.961Z,3.03
2023-02-13T23:33:29.792Z,3.00
2023-02-13T23:35:56.602Z,2.94
2023-02-13T23:38:23.417Z,2.99
2023-02-13T23:40:49.824Z,2.99
2023-02-13T23:43:16.463Z,2.94
2023-02-13T23:45:42.934Z,2.96
2023-02-13T23:48:11.679Z,2.99
2023-02-13T23:50:38.648Z,3.05
2023-02-13T23:53:05.062Z,3.09
2023-02-13T23:55:31.482Z,3.02
2023-02-13T23:57:57.985Z,2.96
